createdAt,value
2018-07-15T00:00:46.085Z,70.20
2018-07-15T00:03:14.027Z,70.30
2018-07-15T00:05:47.757Z,71.20
2018-07-15T00:08:15.660Z,73.50
2018-07-15T00:10:45.094Z,71.80
2018-07-15T00:13:13.946Z,70.30
2018-07-15T00:18:10.321Z,71.00
2018-07-15T00:20:38.497Z,73.90
2018-07-15T00:23:06.971Z,74.10
2018-07-15T00:25:35.067Z,74.10
2018-07-15T00:28:03.246Z,71.20
2018-07-15T00:30:31.233Z,70.90
2018-07-15T00:32:59.651Z,73.70
2018-07-15T00:35:27.652Z,73.20
2018-07-15T00:37:55.400Z,71.90
2018-07-15T00:40:23.562Z,72.70
2018-07-15T00:42:51.649Z,72.60
2018-07-15T00:45:19.556Z,73.00
2018-07-15T00:47:47.410Z,74.00
2018-07-15T00:50:15.423Z,76.20
2018-07-15T00:52:43.351Z,74.30
2018-07-15T00:55:13.260Z,73.20
2018-07-15T00:57:41.022Z,75.00
2018-07-15T01:00:08.930Z,73.40
2018-07-15T01:02:37.140Z,73.00
2018-07-15T01:05:05.233Z,74.00
2018-07-15T01:07:33.663Z,75.50
2018-07-15T01:10:01.752Z,74.40
2018-07-15T01:12:29.881Z,76.20
2018-07-15T01:14:57.932Z,74.00
2018-07-15T01:17:25.982Z,75.90
2018-07-15T01:19:53.998Z,77.50
2018-07-15T01:22:22.150Z,77.70
2018-07-15T01:24:50.195Z,73.30
2018-07-15T01:27:22.370Z,74.00
2018-07-15T01:29:50.242Z,74.20
2018-07-15T01:32:18.139Z,74.30
2018-07-15T01:34:46.086Z,76.60
2018-07-15T01:37:14.090Z,78.30
2018-07-15T01:39:42.010Z,75.70
2018-07-15T01:42:10.053Z,74.70
2018-07-15T01:44:38.039Z,76.00
2018-07-15T01:47:06.206Z,75.50
2018-07-15T01:49:34.225Z,76.50
2018-07-15T01:52:02.339Z,77.70
2018-07-15T01:54:30.174Z,76.40
2018-07-15T01:56:58.265Z,75.70
2018-07-15T01:59:26.191Z,76.00
2018-07-15T02:01:56.116Z,79.30
2018-07-15T02:04:23.894Z,78.70
2018-07-15T02:06:51.752Z,80.10
2018-07-15T02:09:20.515Z,75.90
2018-07-15T02:11:48.513Z,76.90
2018-07-15T02:14:16.463Z,76.00
2018-07-15T02:16:44.388Z,76.30
2018-07-15T02:19:12.273Z,76.70
2018-07-15T02:21:40.276Z,79.60
2018-07-15T02:24:08.359Z,77.50
2018-07-15T02:26:36.319Z,77.30
2018-07-15T02:29:04.563Z,77.90
2018-07-15T02:31:32.329Z,81.70
2018-07-15T02:34:00.330Z,80.60
2018-07-15T02:36:32.535Z,77.60
2018-07-15T02:39:00.643Z,77.00
2018-07-15T02:41:28.781Z,79.90
2018-07-15T02:43:56.557Z,81.10
2018-07-15T02:46:30.730Z,78.00
2018-07-15T02:48:58.683Z,77.30
2018-07-15T02:51:26.648Z,77.70
2018-07-15T02:53:54.570Z,78.10
2018-07-15T02:56:22.540Z,78.70
2018-07-15T02:58:50.702Z,78.60
2018-07-15T03:01:18.609Z,77.90
2018-07-15T03:03:46.589Z,78.10
2018-07-15T03:06:34.142Z,78.50
2018-07-15T03:09:02.663Z,78.60
2018-07-15T03:11:30.824Z,81.40
2018-07-15T03:13:58.749Z,78.30
2018-07-15T03:16:26.791Z,79.80
2018-07-15T03:18:54.804Z,78.50
2018-07-15T03:21:22.714Z,82.70
2018-07-15T03:23:50.636Z,78.40
2018-07-15T03:26:18.649Z,80.40
2018-07-15T03:28:46.594Z,82.30
2018-07-15T03:31:20.094Z,79.20
2018-07-15T03:33:48.056Z,77.60
2018-07-15T03:36:15.991Z,78.20
2018-07-15T03:38:43.915Z,80.00
2018-07-15T03:41:11.921Z,79.30
2018-07-15T03:43:40.094Z,79.40
2018-07-15T03:46:08.630Z,79.10
2018-07-15T03:48:36.422Z,80.30
2018-07-15T03:51:04.450Z,79.30
2018-07-15T03:53:32.457Z,78.80
2018-07-15T03:56:02.625Z,78.60
2018-07-15T03:58:30.746Z,78.80
2018-07-15T04:00:58.720Z,78.70
2018-07-15T04:03:26.682Z,80.00
2018-07-15T04:05:54.710Z,78.90
2018-07-15T04:08:22.639Z,78.80
2018-07-15T04:13:18.251Z,78.20
2018-07-15T04:15:46.228Z,82.70
2018-07-15T04:18:14.297Z,80.30
2018-07-15T04:20:42.286Z,82.60
2018-07-15T04:23:10.184Z,82.20
2018-07-15T04:25:38.239Z,77.40
2018-07-15T04:28:06.207Z,77.50
2018-07-15T04:30:34.252Z,77.50
2018-07-15T04:33:02.271Z,77.80
2018-07-15T04:35:30.171Z,84.10
2018-07-15T04:37:59.247Z,81.50
2018-07-15T04:40:27.150Z,82.40
2018-07-15T04:42:55.228Z,77.80
2018-07-15T04:45:23.233Z,78.80
2018-07-15T04:47:51.159Z,77.70
2018-07-15T04:50:18.925Z,78.30
2018-07-15T04:52:46.801Z,81.30
2018-07-15T04:55:14.794Z,79.90
2018-07-15T04:57:42.577Z,77.60
2018-07-15T05:00:10.602Z,77.20
2018-07-15T05:02:38.511Z,76.50
2018-07-15T05:05:06.540Z,76.70
2018-07-15T05:07:34.437Z,80.90
2018-07-15T05:10:02.296Z,81.00
2018-07-15T05:12:33.735Z,76.60
2018-07-15T05:15:01.810Z,76.60
2018-07-15T05:17:29.688Z,78.20
2018-07-15T05:19:57.539Z,77.70
2018-07-15T05:22:25.539Z,76.40
2018-07-15T05:24:53.444Z,74.60
2018-07-15T05:27:21.357Z,74.50
2018-07-15T05:29:49.327Z,77.70
2018-07-15T05:34:44.914Z,74.10
2018-07-15T05:37:12.735Z,74.80
2018-07-15T05:39:40.630Z,79.50
2018-07-15T05:44:36.378Z,73.30
2018-07-15T05:47:04.446Z,72.80
2018-07-15T05:49:32.209Z,72.60
2018-07-15T05:52:00.466Z,74.00
2018-07-15T05:54:28.464Z,72.30
2018-07-15T05:56:56.475Z,72.30
2018-07-15T05:59:24.321Z,75.70
2018-07-15T06:01:52.127Z,71.30
2018-07-15T06:04:20.081Z,72.90
2018-07-15T06:06:47.994Z,70.20
2018-07-15T06:09:16.073Z,70.00
2018-07-15T06:11:43.936Z,70.30
2018-07-15T06:14:11.820Z,70.20
2018-07-15T06:16:40.859Z,73.10
2018-07-15T06:19:08.789Z,70.40
2018-07-15T06:21:36.594Z,70.60
2018-07-15T06:24:04.689Z,68.80
2018-07-15T06:26:32.565Z,68.40
2018-07-15T06:29:00.910Z,66.80
2018-07-15T06:31:28.877Z,64.50
2018-07-15T06:33:56.789Z,59.70
2018-07-15T06:36:24.589Z,56.70
2018-07-15T06:38:52.688Z,54.40
2018-07-15T06:41:20.611Z,52.00
2018-07-15T06:46:16.172Z,50.10
2018-07-15T06:48:44.022Z,50.00
2018-07-15T06:51:12.053Z,49.90
2018-07-15T06:53:40.005Z,47.80
2018-07-15T06:56:08.076Z,47.00
2018-07-15T06:58:36.320Z,46.40
2018-07-15T07:01:04.463Z,44.60
2018-07-15T07:03:32.382Z,41.80
2018-07-15T07:06:00.492Z,43.50
2018-07-15T07:08:28.390Z,44.00
2018-07-15T07:10:56.330Z,45.50
2018-07-15T07:13:24.128Z,44.70
2018-07-15T07:15:52.387Z,46.20
2018-07-15T07:18:20.208Z,47.30
2018-07-15T07:20:48.171Z,47.00
2018-07-15T07:23:15.992Z,45.50
2018-07-15T07:25:43.964Z,43.90
2018-07-15T07:28:11.827Z,43.40
2018-07-15T07:30:39.916Z,43.80
2018-07-15T07:33:07.887Z,42.70
2018-07-15T07:38:28.262Z,45.00
2018-07-15T07:40:56.060Z,44.10
2018-07-15T07:43:23.979Z,43.60
2018-07-15T07:46:10.382Z,43.40
2018-07-15T07:48:38.543Z,42.70
2018-07-15T07:51:06.745Z,42.60
2018-07-15T07:53:34.739Z,43.20
2018-07-15T07:56:02.851Z,42.70
2018-07-15T07:58:30.875Z,43.50
2018-07-15T08:01:04.767Z,44.80
2018-07-15T08:03:32.720Z,44.60
2018-07-15T08:06:00.729Z,44.90
2018-07-15T08:08:28.566Z,45.60
2018-07-15T08:10:56.532Z,45.10
2018-07-15T08:13:28.204Z,45.30
2018-07-15T08:15:56.127Z,44.80
2018-07-15T08:18:24.213Z,44.30
2018-07-15T08:21:02.741Z,45.10
2018-07-15T08:23:30.721Z,45.10
2018-07-15T08:26:03.580Z,45.90
2018-07-15T08:28:31.752Z,44.50
2018-07-15T08:31:08.295Z,44.10
2018-07-15T08:33:36.230Z,43.20
2018-07-15T08:36:04.261Z,42.20
2018-07-15T08:38:32.232Z,41.10
2018-07-15T08:41:05.302Z,41.60
2018-07-15T08:43:33.457Z,40.60
2018-07-15T08:46:06.721Z,39.60
2018-07-15T08:48:34.700Z,40.30
2018-07-15T08:51:02.959Z,39.80
2018-07-15T08:53:31.488Z,39.80
2018-07-15T08:56:01.915Z,40.20
2018-07-15T08:58:30.108Z,39.10
2018-07-15T09:00:59.989Z,38.90
2018-07-15T09:03:28.012Z,39.90
2018-07-15T09:05:55.971Z,39.50
2018-07-15T09:08:23.741Z,40.00
2018-07-15T09:10:51.831Z,39.40
2018-07-15T09:13:20.736Z,39.00
2018-07-15T09:15:50.391Z,39.00
2018-07-15T09:18:22.114Z,40.10
2018-07-15T09:20:50.864Z,39.60
2018-07-15T09:25:49.479Z,39.40
2018-07-15T09:28:19.823Z,39.30
2018-07-15T09:30:47.836Z,40.00
2018-07-15T09:33:15.748Z,41.50
2018-07-15T09:35:48.848Z,41.00
2018-07-15T09:38:17.021Z,41.10
2018-07-15T09:40:45.107Z,41.50
2018-07-15T09:43:14.429Z,41.60
2018-07-15T09:45:42.548Z,41.80
2018-07-15T09:48:10.638Z,41.00
2018-07-15T09:50:39.102Z,40.50
2018-07-15T09:53:07.021Z,39.70
2018-07-15T09:55:36.167Z,40.40
2018-07-15T09:58:04.917Z,41.70
2018-07-15T10:00:39.480Z,41.50
2018-07-15T10:03:07.871Z,41.60
2018-07-15T10:05:36.223Z,40.80
2018-07-15T10:08:07.172Z,42.30
2018-07-15T10:10:35.414Z,41.80
2018-07-15T10:13:03.842Z,41.70
2018-07-15T10:15:33.216Z,40.60
2018-07-15T10:18:01.407Z,40.40
2018-07-15T10:22:57.026Z,40.10
2018-07-15T10:25:25.037Z,40.90
2018-07-15T10:27:53.016Z,42.10
2018-07-15T10:30:21.170Z,41.50
2018-07-15T10:32:50.115Z,40.30
2018-07-15T10:35:18.037Z,41.10
2018-07-15T10:37:46.015Z,40.40
2018-07-15T10:40:13.929Z,40.10
2018-07-15T10:42:42.099Z,40.20
2018-07-15T10:45:10.314Z,40.20
2018-07-15T10:47:38.388Z,40.30
2018-07-15T10:50:07.422Z,38.70
2018-07-15T10:52:42.443Z,39.60
2018-07-15T10:55:10.881Z,39.70
2018-07-15T10:57:39.253Z,39.60
2018-07-15T11:00:07.463Z,39.80
2018-07-15T11:02:35.631Z,40.90
2018-07-15T11:05:04.206Z,40.00
2018-07-15T11:07:33.199Z,39.40
2018-07-15T11:10:01.588Z,38.60
2018-07-15T11:12:29.701Z,39.70
2018-07-15T11:14:57.699Z,39.70
2018-07-15T11:17:25.886Z,38.70
2018-07-15T11:19:53.932Z,38.50
2018-07-15T11:22:22.120Z,39.30
2018-07-15T11:24:50.115Z,38.20
2018-07-15T11:27:18.020Z,38.30
2018-07-15T11:29:46.026Z,40.00
2018-07-15T11:32:14.165Z,39.50
2018-07-15T11:34:43.491Z,39.70
2018-07-15T11:37:11.820Z,38.20
2018-07-15T11:39:39.821Z,37.60
2018-07-15T11:42:07.875Z,38.00
2018-07-15T11:44:36.843Z,37.40
2018-07-15T11:47:05.300Z,38.10
2018-07-15T11:49:34.829Z,38.40
2018-07-15T11:52:04.690Z,37.90
2018-07-15T11:54:33.745Z,38.90
2018-07-15T11:57:02.436Z,40.70
2018-07-15T11:59:32.636Z,41.10
2018-07-15T12:02:02.354Z,40.70
2018-07-15T12:04:31.148Z,39.70
2018-07-15T12:06:59.390Z,39.70
2018-07-15T12:09:27.464Z,37.50
2018-07-15T12:12:01.565Z,37.80
2018-07-15T12:14:30.492Z,38.20
2018-07-15T12:16:58.864Z,38.50
2018-07-15T12:19:26.852Z,38.80
2018-07-15T12:21:56.250Z,38.80
2018-07-15T12:24:24.239Z,38.70
2018-07-15T12:26:53.955Z,38.60
2018-07-15T12:29:22.112Z,38.10
2018-07-15T12:32:04.411Z,39.00
2018-07-15T12:34:35.094Z,38.80
2018-07-15T12:37:03.947Z,39.00
2018-07-15T12:39:32.821Z,37.80
2018-07-15T12:42:01.894Z,37.70
2018-07-15T12:44:33.873Z,37.90
2018-07-15T12:49:31.097Z,39.20
2018-07-15T12:51:59.263Z,40.00
2018-07-15T12:54:27.078Z,38.20
2018-07-15T12:56:55.121Z,39.00
2018-07-15T12:59:23.811Z,37.90
2018-07-15T13:01:51.905Z,39.00
2018-07-15T13:04:21.779Z,39.50
2018-07-15T13:06:49.807Z,39.00
2018-07-15T13:09:20.787Z,39.70
2018-07-15T13:11:48.900Z,39.70
2018-07-15T13:16:44.661Z,38.50
2018-07-15T13:19:12.829Z,39.00
2018-07-15T13:24:09.906Z,37.80
2018-07-15T13:26:38.125Z,37.80
2018-07-15T13:29:08.385Z,38.30
2018-07-15T13:31:37.129Z,37.50
2018-07-15T13:34:05.307Z,37.60
2018-07-15T13:36:33.610Z,38.40
2018-07-15T13:39:01.981Z,39.20
2018-07-15T13:41:29.975Z,39.30
2018-07-15T13:43:57.989Z,39.30
2018-07-15T13:46:25.799Z,39.20
2018-07-15T13:48:53.729Z,38.10
2018-07-15T13:51:21.663Z,37.20
2018-07-15T13:53:49.537Z,37.50
2018-07-15T13:56:17.390Z,37.70
2018-07-15T13:58:45.275Z,37.10
2018-07-15T14:01:13.140Z,37.90
2018-07-15T14:03:41.030Z,36.40
2018-07-15T14:06:08.915Z,37.00
2018-07-15T14:08:36.750Z,36.30
2018-07-15T14:11:06.144Z,36.10
2018-07-15T14:13:34.337Z,36.30
2018-07-15T14:16:02.687Z,37.10
2018-07-15T14:18:31.173Z,36.30
2018-07-15T14:20:59.466Z,36.90
2018-07-15T14:23:27.405Z,37.90
2018-07-15T14:25:55.415Z,36.60
2018-07-15T14:28:23.248Z,36.60
2018-07-15T14:30:51.678Z,35.10
2018-07-15T14:33:19.591Z,35.20
2018-07-15T14:35:47.484Z,35.00
2018-07-15T14:38:15.372Z,34.30
2018-07-15T14:40:43.824Z,34.30
2018-07-15T14:43:11.785Z,34.30
2018-07-15T14:45:44.208Z,35.10
2018-07-15T14:48:12.059Z,34.90
2018-07-15T14:50:40.744Z,35.70
2018-07-15T14:53:09.517Z,35.50
2018-07-15T14:55:38.126Z,36.40
2018-07-15T14:58:07.389Z,37.10
2018-07-15T15:00:35.961Z,37.10
2018-07-15T15:03:18.187Z,37.90
2018-07-15T15:08:14.635Z,37.50
2018-07-15T15:10:42.617Z,36.60
2018-07-15T15:13:11.065Z,36.50
2018-07-15T15:15:39.102Z,37.70
2018-07-15T15:18:08.293Z,37.40
2018-07-15T15:20:36.618Z,36.40
2018-07-15T15:23:06.363Z,37.60
2018-07-15T15:25:34.945Z,37.80
2018-07-15T15:28:03.512Z,37.70
2018-07-15T15:30:32.121Z,37.70
2018-07-15T15:33:00.670Z,38.50
2018-07-15T15:35:32.580Z,38.10
2018-07-15T15:38:01.977Z,38.00
2018-07-15T15:40:30.210Z,38.90
2018-07-15T15:42:58.334Z,39.60
2018-07-15T15:45:26.558Z,38.80
2018-07-15T15:47:54.369Z,37.90
2018-07-15T15:50:22.290Z,38.60
2018-07-15T15:52:50.408Z,37.90
2018-07-15T15:55:18.381Z,38.20
2018-07-15T15:57:46.440Z,39.20
2018-07-15T16:00:14.529Z,37.90
2018-07-15T16:02:42.531Z,37.90
2018-07-15T16:05:10.768Z,38.20
2018-07-15T16:07:39.401Z,38.90
2018-07-15T16:10:07.739Z,39.40
2018-07-15T16:12:36.242Z,39.40
2018-07-15T16:15:04.950Z,38.90
2018-07-15T16:17:34.667Z,39.00
2018-07-15T16:20:05.298Z,39.30
2018-07-15T16:22:33.909Z,39.90
2018-07-15T16:25:04.057Z,39.50
2018-07-15T16:27:32.590Z,39.40
2018-07-15T16:30:02.112Z,40.00
2018-07-15T16:32:30.908Z,40.00
2018-07-15T16:35:00.188Z,39.50
2018-07-15T16:37:28.317Z,40.30
2018-07-15T16:39:57.612Z,39.70
2018-07-15T16:42:26.178Z,40.60
2018-07-15T16:44:54.294Z,41.20
2018-07-15T16:47:22.167Z,40.70
2018-07-15T16:49:50.274Z,41.20
2018-07-15T16:52:18.234Z,41.60
2018-07-15T16:54:46.140Z,41.40
2018-07-15T16:57:14.056Z,40.60
2018-07-15T16:59:42.034Z,41.20
2018-07-15T17:02:09.942Z,41.40
2018-07-15T17:04:38.613Z,41.40
2018-07-15T17:07:07.042Z,41.80
2018-07-15T17:09:35.190Z,41.40
2018-07-15T17:12:03.554Z,42.00
2018-07-15T17:14:32.314Z,41.70
2018-07-15T17:17:00.340Z,42.20
2018-07-15T17:19:28.476Z,42.10
2018-07-15T17:21:56.494Z,42.50
2018-07-15T17:24:24.700Z,42.30
2018-07-15T17:26:52.861Z,42.80
2018-07-15T17:29:20.723Z,43.10
2018-07-15T17:31:52.595Z,42.50
2018-07-15T17:34:20.451Z,42.40
2018-07-15T17:36:48.578Z,42.90
2018-07-15T17:39:16.576Z,42.70
2018-07-15T17:41:48.462Z,43.60
2018-07-15T17:44:16.357Z,43.00
2018-07-15T17:46:44.312Z,43.30
2018-07-15T17:51:43.869Z,44.00
2018-07-15T17:59:09.649Z,44.40
2018-07-15T18:01:37.866Z,44.40
2018-07-15T18:04:06.172Z,44.20
2018-07-15T18:06:34.763Z,44.60
2018-07-15T18:09:04.749Z,44.90
2018-07-15T18:11:33.447Z,45.00
2018-07-15T18:16:29.572Z,46.80
2018-07-15T18:18:57.584Z,47.90
2018-07-15T18:21:25.541Z,48.10
2018-07-15T18:23:53.935Z,48.60
2018-07-15T18:26:23.131Z,49.20
2018-07-15T18:28:50.934Z,50.10
2018-07-15T18:31:18.806Z,50.10
2018-07-15T18:33:52.320Z,50.40
2018-07-15T18:36:20.354Z,51.20
2018-07-15T18:38:55.073Z,51.90
2018-07-15T18:41:23.079Z,52.60
2018-07-15T18:43:51.038Z,52.30
2018-07-15T18:46:22.573Z,53.30
2018-07-15T18:49:07.807Z,52.70
2018-07-15T18:51:37.013Z,53.60
2018-07-15T18:54:07.535Z,53.50
2018-07-15T18:56:39.059Z,53.50
2018-07-15T18:59:07.836Z,54.50
2018-07-15T19:01:36.719Z,54.30
2018-07-15T19:04:06.231Z,54.50
2018-07-15T19:06:35.011Z,54.80
2018-07-15T19:09:05.201Z,54.70
2018-07-15T19:11:34.593Z,55.00
2018-07-15T19:14:05.597Z,55.40
2018-07-15T19:16:34.381Z,55.80
2018-07-15T19:19:03.415Z,56.80
2018-07-15T19:21:33.531Z,56.90
2018-07-15T19:24:02.706Z,57.10
2018-07-15T19:26:31.456Z,57.30
2018-07-15T19:28:59.460Z,57.60
2018-07-15T19:31:27.219Z,57.80
2018-07-15T19:33:57.018Z,58.20
2018-07-15T19:36:24.935Z,58.50
2018-07-15T19:38:52.892Z,58.60
2018-07-15T19:41:20.849Z,58.80
2018-07-15T19:43:48.727Z,59.00
2018-07-15T19:46:16.604Z,58.90
2018-07-15T19:48:44.631Z,59.00
2018-07-15T19:51:12.591Z,59.30
2018-07-15T19:53:40.814Z,59.50
2018-07-15T19:56:08.888Z,59.70
2018-07-15T19:58:36.922Z,60.00
2018-07-15T20:01:04.997Z,60.30
2018-07-15T20:03:35.264Z,60.50
2018-07-15T20:06:03.936Z,60.80
2018-07-15T20:08:33.114Z,60.70
2018-07-15T20:11:01.433Z,61.00
2018-07-15T20:13:29.399Z,61.30
2018-07-15T20:15:57.346Z,61.70
2018-07-15T20:18:27.052Z,62.00
2018-07-15T20:20:55.102Z,62.30
2018-07-15T20:23:23.095Z,62.70
2018-07-15T20:25:51.052Z,62.90
2018-07-15T20:28:19.353Z,63.00
2018-07-15T20:33:15.571Z,63.60
2018-07-15T20:35:43.577Z,63.60
2018-07-15T20:38:11.446Z,63.80
2018-07-15T20:40:40.499Z,63.90
2018-07-15T20:43:08.403Z,63.80
2018-07-15T20:45:36.516Z,64.10
2018-07-15T20:48:05.214Z,64.10
2018-07-15T20:50:33.510Z,64.00
2018-07-15T20:53:01.643Z,64.00
2018-07-15T20:55:29.611Z,64.40
2018-07-15T20:57:57.522Z,64.60
2018-07-15T21:00:25.371Z,64.60
2018-07-15T21:02:53.418Z,64.70
2018-07-15T21:05:21.583Z,65.10
2018-07-15T21:07:49.556Z,65.80
2018-07-15T21:10:17.514Z,65.60
2018-07-15T21:12:46.167Z,66.00
2018-07-15T21:15:14.203Z,66.20
2018-07-15T21:17:42.268Z,66.90
2018-07-15T21:20:10.265Z,66.60
2018-07-15T21:22:38.481Z,67.70
2018-07-15T21:25:06.792Z,67.00
2018-07-15T21:27:34.887Z,66.80
2018-07-15T21:30:02.894Z,66.90
2018-07-15T21:32:30.860Z,67.20
2018-07-15T21:34:58.907Z,67.10
2018-07-15T21:37:26.828Z,67.10
2018-07-15T21:39:54.713Z,68.50
2018-07-15T21:42:22.698Z,68.40
2018-07-15T21:44:50.653Z,68.00
2018-07-15T21:47:18.552Z,67.90
2018-07-15T21:49:46.569Z,68.10
2018-07-15T21:52:14.680Z,68.50
2018-07-15T21:54:42.686Z,68.90
2018-07-15T21:57:10.880Z,69.40
2018-07-15T21:59:39.129Z,69.90
2018-07-15T22:02:07.126Z,69.70
2018-07-15T22:04:35.182Z,69.60
2018-07-15T22:07:14.320Z,69.30
2018-07-15T22:09:54.587Z,69.30
2018-07-15T22:12:22.618Z,69.90
2018-07-15T22:14:50.568Z,70.00
2018-07-15T22:17:18.698Z,70.20
2018-07-15T22:19:46.618Z,70.40
2018-07-15T22:27:11.851Z,69.30
2018-07-15T22:29:39.680Z,69.10
2018-07-15T22:32:07.763Z,68.70
2018-07-15T22:34:36.080Z,68.90
2018-07-15T22:37:04.260Z,70.10
2018-07-15T22:39:32.389Z,70.50
2018-07-15T22:42:00.343Z,70.30
2018-07-15T22:44:28.244Z,70.30
2018-07-15T22:46:56.173Z,69.30
2018-07-15T22:49:24.151Z,70.20
2018-07-15T22:51:52.036Z,70.70
2018-07-15T22:54:19.874Z,71.00
2018-07-15T22:56:47.894Z,70.20
2018-07-15T22:59:15.856Z,70.20
2018-07-15T23:01:43.681Z,70.50
2018-07-15T23:04:11.525Z,71.20
2018-07-15T23:06:39.399Z,71.30
2018-07-15T23:09:10.186Z,72.00
2018-07-15T23:11:38.518Z,72.10
2018-07-15T23:14:06.719Z,72.70
2018-07-15T23:16:34.746Z,74.10
2018-07-15T23:19:02.991Z,72.90
2018-07-15T23:21:30.852Z,73.60
2018-07-15T23:23:59.171Z,74.20
2018-07-15T23:26:27.073Z,74.20
2018-07-15T23:28:55.036Z,74.40
2018-07-15T23:31:23.150Z,74.60
2018-07-15T23:33:51.971Z,74.70
2018-07-15T23:36:21.276Z,74.70
2018-07-15T23:38:49.244Z,74.60
2018-07-15T23:41:21.362Z,74.70
2018-07-15T23:43:54.222Z,74.70
2018-07-15T23:46:27.034Z,75.00
2018-07-15T23:48:54.957Z,74.40
2018-07-15T23:51:22.917Z,74.50
2018-07-15T23:53:50.883Z,74.90
2018-07-15T23:56:18.967Z,75.30
2018-07-15T23:58:46.902Z,75.30
